Harrisburg, PA (17109)

3:41 PM EDT on April 21, 2015 (GMT -0400)
Colonial Park | | Change Station
CLOSE
Current Station
Personal Weather Station
Location: Harrisburg, PA
Elevation: 522 ft
Nearby Weather Stations

Elev 522 ft 40.29 °N, 76.83 °W | Updated 4 minutes ago

Partly Cloudy
Partly Cloudy
66.6 °F
Feels Like 66.6 °F
N
6.7
Wind Variable Wind from North

Today
High -- | Low -- °F
--% Chance of Precip.
Yesterday
High -- | Low -- °F
Precip. -- in
6:20 AM 7:52 PM
Waxing Crescent, 12% visible
Pressure 29.71 in
Visibility 10.0 miles
Clouds Scattered Clouds 8000 ft
Dew Point 34 °F
Humidity 30%
Rainfall 0.33 in
Snow Depth Not available.
UV 6 out of 12
Pollen 10.40 out of 12
Air Quality Not available.
Flu Activity Sporadic
METAR KMDT 211856Z 30017G23KT 10SM SCT080 17/M02 A2971 RMK AO2 PK WND 27029/1842 SLP059 T01671017

More Conditions Fewer Conditions

Pressure 29.71 in
Visibility 10.0 miles
Clouds Scattered Clouds 8000 ft
Dew Point 34 °F
Humidity 30%
Rainfall 0.33 in
Snow Depth Not available.
UV 6 out of 12
Pollen 10.40 out of 12
Air Quality Not available.
Flu Activity Sporadic
METAR KMDT 211856Z 30017G23KT 10SM SCT080 17/M02 A2971 RMK AO2 PK WND 27029/1842 SLP059 T01671017

More Conditions Fewer Conditions

10-Day Weather Forecast

Almanac

Astronomy

Apr. 21, 2015 Rise Set
Actual Time
Civil Twilight
Nautical Twilight
Astronomical Twilight
Moon
Length of Visible Light
Length of Day
Tomorrow will be .
, % of the Moon is Illuminated

Today's Extremes

State Highs State Lows

Community

WunderPhotos

Upload Photos

1,815,523 photos uploaded!

WunderBlogs® & News

Nearby

Air Quality

  Air Quality AQ Index Pollutant
Not available.

Snow Depth

Station Depth Elevation

Earthquake Activity

City Distance Mag. Time & Date
Minimum magnitude displayed is 2.5.

Coastal Water Temperatures

Place Temperature

Stations

Nearby Weather Stations

Station Location Temp. Windchill Dew Point Humidity Wind Precip. Elev Updated Type